createdAt,value
2022-08-20T00:01:25.201Z,19.48
2022-08-20T00:03:31.253Z,19.45
2022-08-20T00:05:36.799Z,19.36
2022-08-20T00:07:39.649Z,19.38
2022-08-20T00:09:44.432Z,19.33
2022-08-20T00:11:47.122Z,19.27
2022-08-20T00:13:52.299Z,19.22
2022-08-20T00:15:55.284Z,19.24
2022-08-20T00:17:59.226Z,19.20
2022-08-20T00:20:01.999Z,19.20
2022-08-20T00:22:04.764Z,19.13
2022-08-20T00:24:07.606Z,19.16
2022-08-20T00:26:12.212Z,19.03
2022-08-20T00:28:15.255Z,18.99
2022-08-20T00:30:18.120Z,18.98
2022-08-20T00:32:20.814Z,19.00
2022-08-20T00:34:23.445Z,18.94
2022-08-20T00:36:32.261Z,18.92
2022-08-20T00:38:36.065Z,18.92
2022-08-20T00:40:41.495Z,18.89
2022-08-20T00:42:48.895Z,18.83
2022-08-20T00:44:51.585Z,18.84
2022-08-20T00:46:54.826Z,18.89
2022-08-20T00:48:58.600Z,18.91
2022-08-20T00:51:05.775Z,18.89
2022-08-20T00:53:09.591Z,18.87
2022-08-20T00:55:13.670Z,18.87
2022-08-20T00:57:25.551Z,18.87
2022-08-20T00:59:32.755Z,18.85
2022-08-20T01:01:40.682Z,18.89
2022-08-20T01:03:58.191Z,18.94
2022-08-20T01:06:01.439Z,18.97
2022-08-20T01:08:05.180Z,18.97
2022-08-20T01:10:13.887Z,19.04
2022-08-20T01:12:23.625Z,19.04
2022-08-20T01:14:31.834Z,19.00
2022-08-20T01:16:36.555Z,19.08
2022-08-20T01:18:43.537Z,19.05
2022-08-20T01:20:52.298Z,19.07
2022-08-20T01:23:26.424Z,19.03
2022-08-20T01:25:34.207Z,19.05
2022-08-20T01:27:42.720Z,19.10
2022-08-20T01:29:46.842Z,19.02
2022-08-20T01:31:49.779Z,19.08
2022-08-20T01:33:54.049Z,19.01
2022-08-20T01:35:56.678Z,18.99
2022-08-20T01:37:59.383Z,19.03
2022-08-20T01:40:03.598Z,18.99
2022-08-20T01:42:15.359Z,19.04
2022-08-20T01:44:20.428Z,19.06
2022-08-20T01:46:23.481Z,19.03
2022-08-20T01:48:26.583Z,18.96
2022-08-20T01:50:33.328Z,19.00
2022-08-20T01:52:43.795Z,19.01
2022-08-20T01:54:46.979Z,19.01
2022-08-20T01:56:55.962Z,19.04
2022-08-20T01:59:01.533Z,19.06
2022-08-20T02:01:06.170Z,19.07
2022-08-20T02:03:09.173Z,19.13
2022-08-20T02:05:12.341Z,19.18
2022-08-20T02:07:17.918Z,19.16
2022-08-20T02:09:20.796Z,19.22
2022-08-20T02:11:24.364Z,19.16
2022-08-20T02:13:27.235Z,19.05
2022-08-20T02:15:34.526Z,19.06
2022-08-20T02:17:39.764Z,19.09
2022-08-20T02:19:46.230Z,19.09
2022-08-20T02:21:54.312Z,19.05
2022-08-20T02:23:57.346Z,19.05
2022-08-20T02:26:00.403Z,19.11
2022-08-20T02:28:05.796Z,19.04
2022-08-20T02:30:19.338Z,19.03
2022-08-20T02:32:33.613Z,19.02
2022-08-20T02:34:38.699Z,19.01
2022-08-20T02:36:43.840Z,18.99
2022-08-20T02:38:47.683Z,19.00
2022-08-20T02:40:50.586Z,18.96
2022-08-20T02:42:53.372Z,18.99
2022-08-20T02:44:58.502Z,18.91
2022-08-20T02:47:01.322Z,18.94
2022-08-20T02:49:04.952Z,18.95
2022-08-20T02:51:09.717Z,18.92
2022-08-20T02:53:12.767Z,18.92
2022-08-20T02:55:25.129Z,18.89
2022-08-20T02:57:30.568Z,18.98
2022-08-20T02:59:33.553Z,18.98
2022-08-20T03:01:36.362Z,18.99
2022-08-20T03:03:39.253Z,18.99
2022-08-20T03:05:44.503Z,18.97
2022-08-20T03:07:53.407Z,18.97
2022-08-20T03:09:56.163Z,18.98
2022-08-20T03:11:59.282Z,18.94
2022-08-20T03:14:01.980Z,18.98
2022-08-20T03:16:05.712Z,18.80
2022-08-20T03:18:08.619Z,18.82
2022-08-20T03:20:12.253Z,18.78
2022-08-20T03:22:14.903Z,18.72
2022-08-20T03:24:18.989Z,18.67
2022-08-20T03:26:21.765Z,18.64
2022-08-20T03:28:24.559Z,18.62
2022-08-20T03:30:29.457Z,18.46
2022-08-20T03:32:32.155Z,18.37
2022-08-20T03:34:35.868Z,18.31
2022-08-20T03:36:38.588Z,18.26
2022-08-20T03:38:41.413Z,18.22
2022-08-20T03:40:45.853Z,18.28
2022-08-20T03:42:48.607Z,18.26
2022-08-20T03:44:58.644Z,18.20
2022-08-20T03:47:07.493Z,18.23
2022-08-20T03:49:10.221Z,18.15
2022-08-20T03:51:12.905Z,18.12
2022-08-20T03:53:15.957Z,18.12
2022-08-20T03:55:18.669Z,18.16
2022-08-20T03:57:22.861Z,18.28
2022-08-20T03:59:25.587Z,18.31
2022-08-20T04:01:37.101Z,18.18
2022-08-20T04:03:52.147Z,18.30
2022-08-20T04:05:58.791Z,18.21
2022-08-20T04:08:03.660Z,18.27
2022-08-20T04:10:09.822Z,18.29
2022-08-20T04:12:13.448Z,18.25
2022-08-20T04:14:19.467Z,18.29
2022-08-20T04:16:23.144Z,18.29
2022-08-20T04:18:26.715Z,18.25
2022-08-20T04:20:29.417Z,18.25
2022-08-20T04:22:32.159Z,18.20
2022-08-20T04:24:35.453Z,18.22
2022-08-20T04:26:38.116Z,18.30
2022-08-20T04:28:40.811Z,18.32
2022-08-20T04:30:48.109Z,18.37
2022-08-20T04:32:55.490Z,18.32
2022-08-20T04:34:58.715Z,18.41
2022-08-20T04:37:01.406Z,18.55
2022-08-20T04:39:04.716Z,18.56
2022-08-20T04:41:06.425Z,18.57
2022-08-20T04:43:09.089Z,18.65
2022-08-20T04:45:15.109Z,18.60
2022-08-20T04:47:24.689Z,18.50
2022-08-20T04:49:39.203Z,18.45
2022-08-20T04:51:41.874Z,18.50
2022-08-20T04:53:45.118Z,18.49
2022-08-20T04:55:56.962Z,18.47
2022-08-20T04:58:04.744Z,18.53
2022-08-20T05:00:11.585Z,18.58
2022-08-20T05:02:15.443Z,18.57
2022-08-20T05:04:23.088Z,18.57
2022-08-20T05:06:30.494Z,18.66
2022-08-20T05:08:34.328Z,18.63
2022-08-20T05:10:38.139Z,18.69
2022-08-20T05:12:42.064Z,18.59
2022-08-20T05:15:00.152Z,18.67
2022-08-20T05:17:05.051Z,18.67
2022-08-20T05:19:09.699Z,18.60
2022-08-20T05:21:15.678Z,18.56
2022-08-20T05:23:20.728Z,18.66
2022-08-20T05:25:23.925Z,18.63
2022-08-20T05:27:27.083Z,18.70
2022-08-20T05:29:29.928Z,18.66
2022-08-20T05:31:33.555Z,18.77
2022-08-20T05:33:38.347Z,18.85
2022-08-20T05:35:41.689Z,18.73
2022-08-20T05:37:45.832Z,18.64
2022-08-20T05:39:48.532Z,18.60
2022-08-20T05:41:51.627Z,18.57
2022-08-20T05:43:54.380Z,18.44
2022-08-20T05:45:58.641Z,18.45
2022-08-20T05:48:05.385Z,18.54
2022-08-20T05:50:10.026Z,18.50
2022-08-20T05:52:22.614Z,18.49
2022-08-20T05:54:26.688Z,18.71
2022-08-20T05:56:31.125Z,18.65
2022-08-20T05:58:33.993Z,18.66
2022-08-20T06:00:37.504Z,18.85
2022-08-20T06:02:58.354Z,18.89
2022-08-20T06:05:01.134Z,19.00
2022-08-20T06:07:07.168Z,19.08
2022-08-20T06:09:09.873Z,19.06
2022-08-20T06:11:13.927Z,18.97
2022-08-20T06:13:16.662Z,18.89
2022-08-20T06:15:19.877Z,19.00
2022-08-20T06:17:22.576Z,19.01
2022-08-20T06:19:25.476Z,19.33
2022-08-20T06:21:29.100Z,19.41
2022-08-20T06:23:54.369Z,19.58
2022-08-20T06:25:54.412Z,19.63
2022-08-20T06:27:58.688Z,19.85
2022-08-20T06:30:01.445Z,19.90
2022-08-20T06:32:04.460Z,20.07
2022-08-20T06:34:08.253Z,20.00
2022-08-20T06:36:10.952Z,19.99
2022-08-20T06:38:14.646Z,19.65
2022-08-20T06:40:20.211Z,19.85
2022-08-20T06:42:22.951Z,19.97
2022-08-20T06:44:28.437Z,19.97
2022-08-20T06:46:32.170Z,19.98
2022-08-20T06:48:35.412Z,19.70
2022-08-20T06:50:47.212Z,19.72
2022-08-20T06:52:52.638Z,19.95
2022-08-20T06:54:55.827Z,20.17
2022-08-20T06:56:58.559Z,20.05
2022-08-20T06:59:01.262Z,20.08
2022-08-20T07:01:09.297Z,20.20
2022-08-20T07:03:14.753Z,20.26
2022-08-20T07:05:17.426Z,20.31
2022-08-20T07:07:20.720Z,20.43
2022-08-20T07:09:23.439Z,20.42
2022-08-20T07:11:28.457Z,20.21
2022-08-20T07:13:32.398Z,20.09
2022-08-20T07:15:35.140Z,20.36
2022-08-20T07:17:40.389Z,20.31
2022-08-20T07:19:43.100Z,20.44
2022-08-20T07:21:47.552Z,20.61
2022-08-20T07:23:50.222Z,20.59
2022-08-20T07:25:52.977Z,20.24
2022-08-20T07:28:01.372Z,20.35
2022-08-20T07:30:23.973Z,20.49
2022-08-20T07:32:36.884Z,20.53
2022-08-20T07:34:43.622Z,20.56
2022-08-20T07:36:48.365Z,20.82
2022-08-20T07:38:52.360Z,20.74
2022-08-20T07:40:57.191Z,20.64
2022-08-20T07:43:02.589Z,20.57
2022-08-20T07:45:06.261Z,20.58
2022-08-20T07:47:08.935Z,20.52
2022-08-20T07:49:11.650Z,20.66
2022-08-20T07:51:17.725Z,20.57
2022-08-20T07:53:20.394Z,20.85
2022-08-20T07:55:23.092Z,21.22
2022-08-20T07:57:25.818Z,21.22
2022-08-20T07:59:28.852Z,21.45
2022-08-20T08:01:33.185Z,21.59
2022-08-20T08:03:49.181Z,21.81
2022-08-20T08:05:53.822Z,21.90
2022-08-20T08:07:58.608Z,21.59
2022-08-20T08:10:02.662Z,22.01
2022-08-20T08:12:05.580Z,22.40
2022-08-20T08:14:10.791Z,22.22
2022-08-20T08:16:14.010Z,22.07
2022-08-20T08:18:21.853Z,22.23
2022-08-20T08:20:24.636Z,22.00
2022-08-20T08:22:27.450Z,21.87
2022-08-20T08:24:31.477Z,22.30
2022-08-20T08:26:34.249Z,22.41
2022-08-20T08:28:37.018Z,22.73
2022-08-20T08:30:41.135Z,22.66
2022-08-20T08:32:58.133Z,23.23
2022-08-20T08:35:06.111Z,23.62
2022-08-20T08:37:08.857Z,23.27
2022-08-20T08:39:11.670Z,22.72
2022-08-20T08:41:19.885Z,23.34
2022-08-20T08:43:25.906Z,22.56
2022-08-20T08:45:45.738Z,22.75
2022-08-20T08:47:48.821Z,23.48
2022-08-20T08:49:51.626Z,23.22
2022-08-20T08:52:00.131Z,23.04
2022-08-20T08:54:06.880Z,22.89
2022-08-20T08:56:11.083Z,24.03
2022-08-20T08:58:17.155Z,23.74
2022-08-20T09:00:22.328Z,25.43
2022-08-20T09:02:27.785Z,25.72
2022-08-20T09:04:34.408Z,24.54
2022-08-20T09:06:37.441Z,24.69
2022-08-20T09:08:46.595Z,23.73
2022-08-20T09:10:49.311Z,22.38
2022-08-20T09:12:52.255Z,22.05
2022-08-20T09:14:56.532Z,22.41
2022-08-20T09:16:59.312Z,22.22
2022-08-20T09:19:02.032Z,22.08
2022-08-20T09:21:04.802Z,22.15
2022-08-20T09:23:07.905Z,21.99
2022-08-20T09:25:11.118Z,22.08
2022-08-20T09:27:15.020Z,21.88
2022-08-20T09:29:17.841Z,21.72
2022-08-20T09:31:24.273Z,21.69
2022-08-20T09:33:27.412Z,21.82
2022-08-20T09:35:30.476Z,21.83
2022-08-20T09:37:37.502Z,21.60
2022-08-20T09:39:40.622Z,21.78
2022-08-20T09:41:43.365Z,21.68
2022-08-20T09:43:46.037Z,21.65
2022-08-20T09:45:48.743Z,21.79
2022-08-20T09:47:56.569Z,21.96
2022-08-20T09:49:59.987Z,22.09
2022-08-20T09:52:02.880Z,21.94
2022-08-20T09:54:06.575Z,22.29
2022-08-20T09:56:09.947Z,22.87
2022-08-20T09:58:20.754Z,23.04
2022-08-20T10:00:23.564Z,23.23
2022-08-20T10:02:26.758Z,23.66
2022-08-20T10:04:31.007Z,24.13
2022-08-20T10:06:37.684Z,24.50
2022-08-20T10:08:40.576Z,23.50
2022-08-20T10:10:43.274Z,22.92
2022-08-20T10:12:45.949Z,22.48
2022-08-20T10:14:48.630Z,23.01
2022-08-20T10:16:56.653Z,22.22
2022-08-20T10:19:02.640Z,22.18
2022-08-20T10:21:10.450Z,22.38
2022-08-20T10:23:13.236Z,22.47
2022-08-20T10:25:16.694Z,22.35
2022-08-20T10:27:19.437Z,22.56
2022-08-20T10:29:22.134Z,22.80
2022-08-20T10:31:24.853Z,23.12
2022-08-20T10:33:27.847Z,24.01
2022-08-20T10:35:31.034Z,24.39
2022-08-20T10:37:35.106Z,23.76
2022-08-20T10:39:37.803Z,23.45
2022-08-20T10:41:40.528Z,22.90
2022-08-20T10:43:43.234Z,22.33
2022-08-20T10:45:45.934Z,22.72
2022-08-20T10:47:48.684Z,23.25
2022-08-20T10:49:53.232Z,22.67
2022-08-20T10:51:56.478Z,22.66
2022-08-20T10:54:01.377Z,22.46
2022-08-20T10:56:04.462Z,22.24
2022-08-20T10:58:07.787Z,22.07
2022-08-20T11:00:16.834Z,22.14
2022-08-20T11:02:20.051Z,22.23
2022-08-20T11:04:22.756Z,21.84
2022-08-20T11:06:25.448Z,22.00
2022-08-20T11:08:34.231Z,21.90
2022-08-20T11:10:41.251Z,21.89
2022-08-20T11:12:45.518Z,22.12
2022-08-20T11:14:50.302Z,21.67
2022-08-20T11:16:53.127Z,21.97
2022-08-20T11:18:55.865Z,21.75
2022-08-20T11:20:58.675Z,21.71
2022-08-20T11:23:01.613Z,21.52
2022-08-20T11:25:04.795Z,21.61
2022-08-20T11:27:09.738Z,21.87
2022-08-20T11:29:12.443Z,22.22
2022-08-20T11:31:15.133Z,22.15
2022-08-20T11:33:17.864Z,22.13
2022-08-20T11:35:42.124Z,22.15
2022-08-20T11:37:46.302Z,22.55
2022-08-20T11:39:49.200Z,22.51
2022-08-20T11:41:54.829Z,22.09
2022-08-20T11:44:20.432Z,22.03
2022-08-20T11:46:26.554Z,21.90
2022-08-20T11:48:31.129Z,22.22
2022-08-20T11:50:33.824Z,22.02
2022-08-20T11:52:36.776Z,21.85
2022-08-20T11:54:40.575Z,21.71
2022-08-20T11:56:45.886Z,21.70
2022-08-20T11:58:49.328Z,21.49
2022-08-20T12:00:53.405Z,21.43
2022-08-20T12:02:56.368Z,21.48
2022-08-20T12:04:59.771Z,21.27
2022-08-20T12:07:09.436Z,21.67
2022-08-20T12:09:12.110Z,21.90
2022-08-20T12:11:15.073Z,22.03
2022-08-20T12:13:17.798Z,22.02
2022-08-20T12:15:20.548Z,22.04
2022-08-20T12:17:27.260Z,21.88
2022-08-20T12:19:29.965Z,22.18
2022-08-20T12:21:32.688Z,22.15
2022-08-20T12:23:35.404Z,22.00
2022-08-20T12:25:38.144Z,22.01
2022-08-20T12:27:41.765Z,21.99
2022-08-20T12:29:46.195Z,22.25
2022-08-20T12:31:48.917Z,22.39
2022-08-20T12:33:52.998Z,22.60
2022-08-20T12:35:55.676Z,22.42
2022-08-20T12:37:58.607Z,22.53
2022-08-20T12:40:04.589Z,22.91
2022-08-20T12:42:07.858Z,22.48
2022-08-20T12:44:13.275Z,22.70
2022-08-20T12:46:16.332Z,22.98
2022-08-20T12:48:20.797Z,22.70
2022-08-20T12:50:31.315Z,23.15
2022-08-20T12:52:34.881Z,23.02
2022-08-20T12:54:37.760Z,23.34
2022-08-20T12:56:41.460Z,23.62
2022-08-20T12:58:44.780Z,23.37
2022-08-20T13:00:48.592Z,23.65
2022-08-20T13:02:56.032Z,23.92
2022-08-20T13:05:04.329Z,23.89
2022-08-20T13:07:12.678Z,23.76
2022-08-20T13:09:16.179Z,24.13
2022-08-20T13:11:18.899Z,24.05
2022-08-20T13:13:21.573Z,23.33
2022-08-20T13:15:25.173Z,22.51
2022-08-20T13:17:38.105Z,21.79
2022-08-20T13:19:41.900Z,20.75
2022-08-20T13:21:44.612Z,20.15
2022-08-20T13:23:58.849Z,20.57
2022-08-20T13:26:01.583Z,20.51
2022-08-20T13:28:05.698Z,20.40
2022-08-20T13:30:11.952Z,20.39
2022-08-20T13:32:14.868Z,20.46
2022-08-20T13:34:17.619Z,20.45
2022-08-20T13:36:20.328Z,20.23
2022-08-20T13:38:23.231Z,19.95
2022-08-20T13:40:29.281Z,20.21
2022-08-20T13:42:32.356Z,19.97
2022-08-20T13:44:35.216Z,19.99
2022-08-20T13:46:38.093Z,19.60
2022-08-20T13:48:40.751Z,19.78
2022-08-20T13:50:47.355Z,19.88
2022-08-20T13:52:50.508Z,19.92
2022-08-20T13:54:53.599Z,19.93
2022-08-20T13:57:06.659Z,20.08
2022-08-20T13:59:09.378Z,20.23
2022-08-20T14:01:15.672Z,20.54
2022-08-20T14:03:20.086Z,20.78
2022-08-20T14:05:28.437Z,21.34
2022-08-20T14:07:32.936Z,21.61
2022-08-20T14:09:38.886Z,21.40
2022-08-20T14:11:41.631Z,21.05
2022-08-20T14:13:45.792Z,21.01
2022-08-20T14:15:49.236Z,20.93
2022-08-20T14:17:53.970Z,21.25
2022-08-20T14:20:01.576Z,21.46
2022-08-20T14:22:04.624Z,21.49
2022-08-20T14:24:07.456Z,21.56
2022-08-20T14:26:10.189Z,21.50
2022-08-20T14:28:18.058Z,21.49
2022-08-20T14:30:26.269Z,21.39
2022-08-20T14:32:29.398Z,21.65
2022-08-20T14:34:32.809Z,21.70
2022-08-20T14:36:35.510Z,21.97
2022-08-20T14:38:41.461Z,22.20
2022-08-20T14:40:44.145Z,21.85
2022-08-20T14:42:51.659Z,21.66
2022-08-20T14:44:55.465Z,21.76
2022-08-20T14:46:59.552Z,22.17
2022-08-20T14:49:02.217Z,22.00
2022-08-20T14:51:06.984Z,21.57
2022-08-20T14:53:09.684Z,21.75
2022-08-20T14:55:16.037Z,21.50
2022-08-20T14:57:20.800Z,21.78
2022-08-20T14:59:23.568Z,21.70
2022-08-20T15:01:26.453Z,21.62
2022-08-20T15:03:30.587Z,21.54
2022-08-20T15:05:33.555Z,21.70
2022-08-20T15:07:40.188Z,22.06
2022-08-20T15:09:42.865Z,22.10
2022-08-20T15:11:45.951Z,21.94
2022-08-20T15:13:48.679Z,21.94
2022-08-20T15:15:51.482Z,22.20
2022-08-20T15:17:56.262Z,21.90
2022-08-20T15:20:03.405Z,22.02
2022-08-20T15:22:06.304Z,22.22
2022-08-20T15:24:15.685Z,22.07
2022-08-20T15:26:22.417Z,22.19
2022-08-20T15:28:25.173Z,22.07
2022-08-20T15:30:29.978Z,22.14
2022-08-20T15:32:32.731Z,22.31
2022-08-20T15:34:35.747Z,22.13
2022-08-20T15:36:39.783Z,22.24
2022-08-20T15:38:44.506Z,22.30
2022-08-20T15:40:47.277Z,22.21
2022-08-20T15:42:50.023Z,22.16
2022-08-20T15:44:52.840Z,22.07
2022-08-20T15:46:55.583Z,22.25
2022-08-20T15:48:58.244Z,22.13
2022-08-20T15:51:19.591Z,22.28
2022-08-20T15:53:31.277Z,22.32
2022-08-20T15:55:34.736Z,22.35
2022-08-20T15:57:46.780Z,22.34
2022-08-20T16:00:06.525Z,22.41
2022-08-20T16:02:26.092Z,22.33
2022-08-20T16:04:51.614Z,22.52
2022-08-20T16:07:00.177Z,22.60
2022-08-20T16:09:32.425Z,22.60
2022-08-20T16:11:48.313Z,22.68
2022-08-20T16:13:55.143Z,22.73
2022-08-20T16:16:03.394Z,22.54
2022-08-20T16:18:09.860Z,22.48
2022-08-20T16:20:22.198Z,22.50
2022-08-20T16:22:29.561Z,22.30
2022-08-20T16:24:33.972Z,22.32
2022-08-20T16:26:54.335Z,22.22
2022-08-20T16:29:05.311Z,22.18
2022-08-20T16:31:18.198Z,22.10
2022-08-20T16:33:27.705Z,22.12
2022-08-20T16:35:34.686Z,22.15
2022-08-20T16:37:43.749Z,22.16
2022-08-20T16:39:56.158Z,22.23
2022-08-20T16:41:58.967Z,22.31
2022-08-20T16:44:16.642Z,22.27
2022-08-20T16:46:22.658Z,22.25
2022-08-20T16:48:34.892Z,22.05
2022-08-20T16:50:41.089Z,21.90
2022-08-20T16:52:46.186Z,21.90
2022-08-20T16:54:50.312Z,21.96
2022-08-20T16:57:01.220Z,21.97
2022-08-20T16:59:05.970Z,21.93
2022-08-20T17:01:12.575Z,21.90
2022-08-20T17:03:39.505Z,21.90
2022-08-20T17:05:47.473Z,21.95
2022-08-20T17:07:53.435Z,22.02
2022-08-20T17:10:10.860Z,22.01
2022-08-20T17:12:18.919Z,22.09
2022-08-20T17:14:22.121Z,22.01
2022-08-20T17:16:24.849Z,21.93
2022-08-20T17:18:30.223Z,21.90
2022-08-20T17:20:44.723Z,21.91
2022-08-20T17:22:49.900Z,22.02
2022-08-20T17:24:52.679Z,22.06
2022-08-20T17:27:01.543Z,21.92
2022-08-20T17:29:13.762Z,21.67
2022-08-20T17:31:21.237Z,21.68
2022-08-20T17:33:39.958Z,21.50
2022-08-20T17:35:49.439Z,21.45
2022-08-20T17:37:54.088Z,21.31
2022-08-20T17:40:10.378Z,21.32
2022-08-20T17:42:20.652Z,21.17
2022-08-20T17:44:29.270Z,21.07
2022-08-20T17:46:36.772Z,21.01
2022-08-20T17:48:45.918Z,21.04
2022-08-20T17:50:49.918Z,21.08
2022-08-20T17:52:57.372Z,21.05
2022-08-20T17:55:02.726Z,21.19
2022-08-20T17:57:08.662Z,21.28
2022-08-20T17:59:24.082Z,21.17
2022-08-20T18:01:41.147Z,21.00
2022-08-20T18:03:43.873Z,20.75
2022-08-20T18:05:53.378Z,20.71
2022-08-20T18:08:17.249Z,20.90
2022-08-20T18:10:25.175Z,20.79
2022-08-20T18:12:34.890Z,20.71
2022-08-20T18:14:52.871Z,20.59
2022-08-20T18:17:09.715Z,20.49
2022-08-20T18:19:16.160Z,20.39
2022-08-20T18:21:39.223Z,20.30
2022-08-20T18:23:47.714Z,20.17
2022-08-20T18:25:54.712Z,20.14
2022-08-20T18:28:03.051Z,19.96
2022-08-20T18:30:18.744Z,19.94
2022-08-20T18:32:30.395Z,19.88
2022-08-20T18:34:39.823Z,19.83
2022-08-20T18:36:42.952Z,19.86
2022-08-20T18:38:58.124Z,19.88
2022-08-20T18:41:09.954Z,19.83
2022-08-20T18:43:13.810Z,19.80
2022-08-20T18:45:29.386Z,19.71
2022-08-20T18:47:42.911Z,19.72
2022-08-20T18:50:00.191Z,19.63
2022-08-20T18:52:12.108Z,19.57
2022-08-20T18:54:25.296Z,19.58
2022-08-20T18:56:40.894Z,19.50
2022-08-20T18:58:53.759Z,19.44
2022-08-20T19:00:59.109Z,19.47
2022-08-20T19:03:14.949Z,19.40
2022-08-20T19:05:27.461Z,19.33
2022-08-20T19:07:48.075Z,19.47
2022-08-20T19:10:28.202Z,19.46
2022-08-20T19:13:03.579Z,19.48
2022-08-20T19:15:08.861Z,19.62
2022-08-20T19:17:18.502Z,19.46
2022-08-20T19:19:23.791Z,19.50
2022-08-20T19:21:30.996Z,19.57
2022-08-20T19:23:38.985Z,19.70
2022-08-20T19:25:53.745Z,19.52
2022-08-20T19:27:58.186Z,19.52
2022-08-20T19:30:01.404Z,19.53
2022-08-20T19:32:07.804Z,19.36
2022-08-20T19:34:21.908Z,19.54
2022-08-20T19:36:28.178Z,19.44
2022-08-20T19:38:31.245Z,19.41
2022-08-20T19:40:39.019Z,19.44
2022-08-20T19:42:44.152Z,19.49
2022-08-20T19:44:53.940Z,19.61
2022-08-20T19:46:57.945Z,19.47
2022-08-20T19:49:20.967Z,19.39
2022-08-20T19:51:32.335Z,19.27
2022-08-20T19:53:37.582Z,19.29
2022-08-20T19:55:41.074Z,19.18
2022-08-20T19:57:51.660Z,19.11
2022-08-20T19:59:59.711Z,19.12
2022-08-20T20:02:20.565Z,19.21
2022-08-20T20:04:29.266Z,19.26
2022-08-20T20:06:37.361Z,19.31
2022-08-20T20:08:42.795Z,19.22
2022-08-20T20:10:51.259Z,19.24
2022-08-20T20:12:53.993Z,19.37
2022-08-20T20:14:57.137Z,19.33
2022-08-20T20:17:00.975Z,19.14
2022-08-20T20:19:25.329Z,19.17
2022-08-20T20:21:40.413Z,19.23
2022-08-20T20:23:53.255Z,19.31
2022-08-20T20:25:59.648Z,19.20
2022-08-20T20:28:10.415Z,19.20
2022-08-20T20:30:14.432Z,19.28
2022-08-20T20:32:21.534Z,19.21
2022-08-20T20:34:26.936Z,19.08
2022-08-20T20:36:38.178Z,19.04
2022-08-20T20:38:54.951Z,18.96
2022-08-20T20:41:00.939Z,18.96
2022-08-20T20:43:07.274Z,18.95
2022-08-20T20:45:18.359Z,18.82
2022-08-20T20:47:23.403Z,18.79
2022-08-20T20:49:28.898Z,18.84
2022-08-20T20:51:37.171Z,18.74
2022-08-20T20:53:49.561Z,18.69
2022-08-20T20:55:57.416Z,18.60
2022-08-20T20:58:02.691Z,18.54
2022-08-20T21:00:08.052Z,18.46
2022-08-20T21:02:10.948Z,18.54
2022-08-20T21:04:13.683Z,18.47
2022-08-20T21:06:16.578Z,18.39
2022-08-20T21:08:19.820Z,18.35
2022-08-20T21:10:32.125Z,18.26
2022-08-20T21:12:34.814Z,18.27
2022-08-20T21:14:37.672Z,18.15
2022-08-20T21:16:40.462Z,18.17
2022-08-20T21:18:43.233Z,18.04
2022-08-20T21:20:47.348Z,18.12
2022-08-20T21:22:50.111Z,18.10
2022-08-20T21:24:53.077Z,18.06
2022-08-20T21:26:58.396Z,18.01
2022-08-20T21:29:01.273Z,17.96
2022-08-20T21:31:04.585Z,18.03
2022-08-20T21:33:07.273Z,17.94
2022-08-20T21:35:11.413Z,17.93
2022-08-20T21:37:14.847Z,17.84
2022-08-20T21:39:17.683Z,17.85
2022-08-20T21:41:30.092Z,17.82
2022-08-20T21:43:34.354Z,17.79
2022-08-20T21:45:38.440Z,17.68
2022-08-20T21:47:41.717Z,17.51
2022-08-20T21:49:44.525Z,17.45
2022-08-20T21:51:47.720Z,17.33
2022-08-20T21:53:50.369Z,17.27
2022-08-20T21:55:53.200Z,17.25
2022-08-20T21:57:56.168Z,17.19
2022-08-20T22:00:02.132Z,17.19
2022-08-20T22:02:05.569Z,17.15
2022-08-20T22:04:08.600Z,16.93
2022-08-20T22:06:13.953Z,16.92
2022-08-20T22:08:17.151Z,16.95
2022-08-20T22:10:19.912Z,16.84
2022-08-20T22:12:26.616Z,16.85
2022-08-20T22:14:30.120Z,16.82
2022-08-20T22:16:34.210Z,16.93
2022-08-20T22:18:37.453Z,16.89
2022-08-20T22:20:41.401Z,17.02
2022-08-20T22:22:45.940Z,16.92
2022-08-20T22:24:48.782Z,16.83
2022-08-20T22:26:51.442Z,16.76
2022-08-20T22:28:54.196Z,16.83
2022-08-20T22:30:56.998Z,16.71
2022-08-20T22:33:05.813Z,16.72
2022-08-20T22:35:09.736Z,16.63
2022-08-20T22:37:16.629Z,16.69
2022-08-20T22:39:19.356Z,16.73
2022-08-20T22:41:22.388Z,16.68
2022-08-20T22:43:25.136Z,16.71
2022-08-20T22:45:27.969Z,16.70
2022-08-20T22:47:30.940Z,16.75
2022-08-20T22:49:39.641Z,16.64
2022-08-20T22:51:44.232Z,16.62
2022-08-20T22:53:47.955Z,16.60
2022-08-20T22:55:51.380Z,16.68
2022-08-20T22:57:54.113Z,16.58
2022-08-20T22:59:58.085Z,16.59
2022-08-20T23:02:07.947Z,16.54
2022-08-20T23:04:18.371Z,16.46
2022-08-20T23:06:22.998Z,16.35
2022-08-20T23:08:27.166Z,16.50
2022-08-20T23:10:33.361Z,16.40
2022-08-20T23:12:36.182Z,16.46
2022-08-20T23:14:38.907Z,16.44
2022-08-20T23:16:45.271Z,16.41
2022-08-20T23:18:48.083Z,16.31
2022-08-20T23:20:53.724Z,16.30
2022-08-20T23:22:57.948Z,16.23
2022-08-20T23:25:00.913Z,16.24
2022-08-20T23:27:04.517Z,16.21
2022-08-20T23:29:07.259Z,16.18
2022-08-20T23:31:09.942Z,16.25
2022-08-20T23:33:12.722Z,16.10
2022-08-20T23:35:15.455Z,15.95
2022-08-20T23:37:19.911Z,16.10
2022-08-20T23:39:24.881Z,16.04
2022-08-20T23:41:27.578Z,16.04
2022-08-20T23:43:30.607Z,15.94
2022-08-20T23:45:34.258Z,15.91
2022-08-20T23:47:38.819Z,15.85
2022-08-20T23:49:41.572Z,15.78
2022-08-20T23:51:44.400Z,15.84
2022-08-20T23:53:47.275Z,15.86
2022-08-20T23:55:51.364Z,15.89
2022-08-20T23:57:54.604Z,15.89
2022-08-20T23:59:57.387Z,15.86
